sensor_id;sensor_type;location;lat;lon;timestamp;pressure;altitude;pressure_sealevel;temperature;humidity
25238;BME280;13185;50.872;5.306;2023-04-02T00:02:47;100597.22;;;8.01;100.00
25238;BME280;13185;50.872;5.306;2023-04-02T00:07:46;100603.81;;;7.95;100.00
25238;BME280;13185;50.872;5.306;2023-04-02T00:13:27;100618.44;;;7.88;100.00
25238;BME280;13185;50.872;5.306;2023-04-02T00:15:55;100625.97;;;7.81;100.00
25238;BME280;13185;50.872;5.306;2023-04-02T00:18:22;100625.34;;;7.76;100.00
25238;BME280;13185;50.872;5.306;2023-04-02T00:20:55;100630.78;;;7.75;100.00
25238;BME280;13185;50.872;5.306;2023-04-02T00:23:25;100642.56;;;7.71;100.00
25238;BME280;13185;50.872;5.306;2023-04-02T00:25:50;100637.22;;;7.71;100.00
25238;BME280;13185;50.872;5.306;2023-04-02T00:28:21;100640.78;;;7.71;100.00
25238;BME280;13185;50.872;5.306;2023-04-02T00:30:50;100637.16;;;7.72;100.00
25238;BME280;13185;50.872;5.306;2023-04-02T00:33:22;100651.47;;;7.71;100.00
25238;BME280;13185;50.872;5.306;2023-04-02T00:35:50;100652.38;;;7.70;100.00
25238;BME280;13185;50.872;5.306;2023-04-02T00:38:29;100656.00;;;7.69;100.00
25238;BME280;13185;50.872;5.306;2023-04-02T00:40:58;100656.25;;;7.65;100.00
25238;BME280;13185;50.872;5.306;2023-04-02T00:43:30;100667.19;;;7.60;100.00
25238;BME280;13185;50.872;5.306;2023-04-02T00:45:59;100673.56;;;7.58;100.00
25238;BME280;13185;50.872;5.306;2023-04-02T00:51:02;100682.25;;;7.45;100.00
25238;BME280;13185;50.872;5.306;2023-04-02T00:53:33;100675.28;;;7.43;100.00
25238;BME280;13185;50.872;5.306;2023-04-02T00:56:00;100677.31;;;7.38;100.00
25238;BME280;13185;50.872;5.306;2023-04-02T00:58:32;100673.09;;;7.34;100.00
25238;BME280;13185;50.872;5.306;2023-04-02T01:00:59;100682.81;;;7.35;100.00
25238;BME280;13185;50.872;5.306;2023-04-02T01:03:33;100684.53;;;7.36;100.00
25238;BME280;13185;50.872;5.306;2023-04-02T01:06:12;100691.44;;;7.40;100.00
25238;BME280;13185;50.872;5.306;2023-04-02T01:11:43;100701.13;;;7.25;100.00
25238;BME280;13185;50.872;5.306;2023-04-02T01:14:20;100710.25;;;7.21;100.00
25238;BME280;13185;50.872;5.306;2023-04-02T01:16:57;100707.59;;;7.21;100.00
25238;BME280;13185;50.872;5.306;2023-04-02T01:24:44;100720.66;;;7.26;100.00
25238;BME280;13185;50.872;5.306;2023-04-02T01:27:26;100709.13;;;7.25;100.00
25238;BME280;13185;50.872;5.306;2023-04-02T01:29:54;100729.88;;;7.20;100.00
25238;BME280;13185;50.872;5.306;2023-04-02T01:32:22;100726.56;;;7.15;100.00
25238;BME280;13185;50.872;5.306;2023-04-02T01:34:50;100734.81;;;7.10;100.00
25238;BME280;13185;50.872;5.306;2023-04-02T01:40:42;100755.28;;;7.10;100.00
25238;BME280;13185;50.872;5.306;2023-04-02T01:46:24;100755.50;;;7.05;100.00
25238;BME280;13185;50.872;5.306;2023-04-02T01:48:52;100763.50;;;7.05;100.00
25238;BME280;13185;50.872;5.306;2023-04-02T01:51:26;100768.94;;;7.04;100.00
25238;BME280;13185;50.872;5.306;2023-04-02T01:53:53;100779.59;;;7.04;100.00
25238;BME280;13185;50.872;5.306;2023-04-02T01:56:18;100771.75;;;7.01;100.00
25238;BME280;13185;50.872;5.306;2023-04-02T01:58:45;100778.19;;;6.97;100.00
25238;BME280;13185;50.872;5.306;2023-04-02T02:01:22;100783.19;;;6.85;100.00
25238;BME280;13185;50.872;5.306;2023-04-02T02:03:50;100788.69;;;6.82;100.00
25238;BME280;13185;50.872;5.306;2023-04-02T02:06:18;100789.56;;;6.83;100.00
25238;BME280;13185;50.872;5.306;2023-04-02T02:08:50;100798.50;;;6.82;100.00
25238;BME280;13185;50.872;5.306;2023-04-02T02:11:21;100804.03;;;6.77;100.00
25238;BME280;13185;50.872;5.306;2023-04-02T02:13:52;100810.47;;;6.73;100.00
25238;BME280;13185;50.872;5.306;2023-04-02T02:16:19;100813.13;;;6.73;100.00
25238;BME280;13185;50.872;5.306;2023-04-02T02:18:52;100817.69;;;6.71;100.00
25238;BME280;13185;50.872;5.306;2023-04-02T02:21:42;100821.50;;;6.65;100.00
25238;BME280;13185;50.872;5.306;2023-04-02T02:24:24;100822.44;;;6.64;100.00
25238;BME280;13185;50.872;5.306;2023-04-02T02:27:20;100830.22;;;6.69;100.00
25238;BME280;13185;50.872;5.306;2023-04-02T02:29:44;100829.50;;;6.65;100.00
25238;BME280;13185;50.872;5.306;2023-04-02T02:32:11;100839.44;;;6.62;100.00
25238;BME280;13185;50.872;5.306;2023-04-02T02:34:44;100838.75;;;6.58;100.00
25238;BME280;13185;50.872;5.306;2023-04-02T02:37:22;100835.13;;;6.59;100.00
25238;BME280;13185;50.872;5.306;2023-04-02T02:39:55;100854.06;;;6.53;100.00
25238;BME280;13185;50.872;5.306;2023-04-02T02:42:31;100857.84;;;6.49;100.00
25238;BME280;13185;50.872;5.306;2023-04-02T02:45:00;100864.19;;;6.47;100.00
25238;BME280;13185;50.872;5.306;2023-04-02T02:47:28;100870.38;;;6.47;100.00
25238;BME280;13185;50.872;5.306;2023-04-02T02:50:01;100866.97;;;6.44;100.00
25238;BME280;13185;50.872;5.306;2023-04-02T02:52:34;100876.66;;;6.46;100.00
25238;BME280;13185;50.872;5.306;2023-04-02T02:55:16;100879.31;;;6.46;100.00
25238;BME280;13185;50.872;5.306;2023-04-02T02:57:57;100886.28;;;6.49;100.00
25238;BME280;13185;50.872;5.306;2023-04-02T03:00:30;100886.22;;;6.50;100.00
25238;BME280;13185;50.872;5.306;2023-04-02T03:02:58;100895.78;;;6.54;100.00
25238;BME280;13185;50.872;5.306;2023-04-02T03:05:28;100892.31;;;6.52;100.00
25238;BME280;13185;50.872;5.306;2023-04-02T03:07:59;100904.84;;;6.50;100.00
25238;BME280;13185;50.872;5.306;2023-04-02T03:10:44;100907.59;;;6.49;100.00
25238;BME280;13185;50.872;5.306;2023-04-02T03:13:26;100916.59;;;6.46;100.00
25238;BME280;13185;50.872;5.306;2023-04-02T03:27:17;100940.25;;;6.33;100.00
25238;BME280;13185;50.872;5.306;2023-04-02T03:32:41;100966.41;;;6.25;100.00
25238;BME280;13185;50.872;5.306;2023-04-02T03:37:43;100967.47;;;6.21;100.00
25238;BME280;13185;50.872;5.306;2023-04-02T03:40:17;100970.13;;;6.21;100.00
25238;BME280;13185;50.872;5.306;2023-04-02T03:43:10;100977.19;;;6.22;100.00
25238;BME280;13185;50.872;5.306;2023-04-02T03:45:42;100984.16;;;6.25;100.00
25238;BME280;13185;50.872;5.306;2023-04-02T03:48:23;100984.97;;;6.27;100.00
25238;BME280;13185;50.872;5.306;2023-04-02T03:53:33;100999.00;;;6.30;100.00
25238;BME280;13185;50.872;5.306;2023-04-02T03:56:00;101008.13;;;6.25;100.00
25238;BME280;13185;50.872;5.306;2023-04-02T03:58:43;101013.66;;;6.20;100.00
25238;BME280;13185;50.872;5.306;2023-04-02T04:01:32;101021.00;;;6.15;100.00
25238;BME280;13185;50.872;5.306;2023-04-02T04:04:09;101024.66;;;6.13;100.00
25238;BME280;13185;50.872;5.306;2023-04-02T04:06:41;101029.47;;;6.04;100.00
25238;BME280;13185;50.872;5.306;2023-04-02T04:09:21;101025.19;;;6.00;100.00
25238;BME280;13185;50.872;5.306;2023-04-02T04:11:53;101038.31;;;6.05;100.00
25238;BME280;13185;50.872;5.306;2023-04-02T04:14:31;101047.16;;;6.05;100.00
25238;BME280;13185;50.872;5.306;2023-04-02T04:19:58;101054.16;;;6.08;100.00
25238;BME280;13185;50.872;5.306;2023-04-02T04:22:28;101057.59;;;6.10;100.00
25238;BME280;13185;50.872;5.306;2023-04-02T04:25:25;101062.94;;;6.10;100.00
25238;BME280;13185;50.872;5.306;2023-04-02T04:33:21;101080.22;;;6.00;100.00
25238;BME280;13185;50.872;5.306;2023-04-02T04:36:01;101085.00;;;5.92;100.00
25238;BME280;13185;50.872;5.306;2023-04-02T04:38:33;101078.06;;;5.88;100.00
25238;BME280;13185;50.872;5.306;2023-04-02T04:41:11;101086.19;;;5.85;100.00
25238;BME280;13185;50.872;5.306;2023-04-02T04:43:51;101094.28;;;5.82;100.00
25238;BME280;13185;50.872;5.306;2023-04-02T04:46:53;101102.47;;;5.77;100.00
25238;BME280;13185;50.872;5.306;2023-04-02T04:49:31;101111.31;;;5.77;100.00
25238;BME280;13185;50.872;5.306;2023-04-02T04:55:27;101111.38;;;5.76;100.00
25238;BME280;13185;50.872;5.306;2023-04-02T04:58:07;101126.53;;;5.74;100.00
25238;BME280;13185;50.872;5.306;2023-04-02T05:03:31;101136.75;;;5.63;100.00
25238;BME280;13185;50.872;5.306;2023-04-02T05:14:51;101159.13;;;5.57;100.00
25238;BME280;13185;50.872;5.306;2023-04-02T05:17:27;101163.59;;;5.57;100.00
25238;BME280;13185;50.872;5.306;2023-04-02T05:20:01;101165.19;;;5.61;100.00
25238;BME280;13185;50.872;5.306;2023-04-02T05:22:42;101181.06;;;5.64;100.00
25238;BME280;13185;50.872;5.306;2023-04-02T05:25:21;101190.88;;;5.62;100.00
25238;BME280;13185;50.872;5.306;2023-04-02T05:30:45;101191.19;;;5.54;100.00
25238;BME280;13185;50.872;5.306;2023-04-02T05:33:27;101200.13;;;5.51;100.00
25238;BME280;13185;50.872;5.306;2023-04-02T05:36:09;101202.69;;;5.55;100.00
25238;BME280;13185;50.872;5.306;2023-04-02T05:38:46;101202.75;;;5.53;100.00
25238;BME280;13185;50.872;5.306;2023-04-02T05:43:56;101212.53;;;5.53;100.00
25238;BME280;13185;50.872;5.306;2023-04-02T05:46:29;101213.56;;;5.48;100.00
25238;BME280;13185;50.872;5.306;2023-04-02T05:48:58;101229.66;;;5.45;100.00
25238;BME280;13185;50.872;5.306;2023-04-02T05:51:41;101242.16;;;5.43;100.00
25238;BME280;13185;50.872;5.306;2023-04-02T05:54:33;101238.56;;;5.44;100.00
25238;BME280;13185;50.872;5.306;2023-04-02T05:57:30;101247.47;;;5.43;100.00
25238;BME280;13185;50.872;5.306;2023-04-02T05:59:58;101250.28;;;5.39;100.00
25238;BME280;13185;50.872;5.306;2023-04-02T06:02:30;101255.66;;;5.37;100.00
25238;BME280;13185;50.872;5.306;2023-04-02T06:05:11;101264.50;;;5.38;100.00
25238;BME280;13185;50.872;5.306;2023-04-02T06:07:44;101272.41;;;5.39;100.00
25238;BME280;13185;50.872;5.306;2023-04-02T06:10:24;101283.13;;;5.38;100.00
25238;BME280;13185;50.872;5.306;2023-04-02T06:12:56;101277.13;;;5.33;100.00
25238;BME280;13185;50.872;5.306;2023-04-02T06:15:28;101281.78;;;5.26;100.00
25238;BME280;13185;50.872;5.306;2023-04-02T06:20:40;101296.00;;;5.25;100.00
25238;BME280;13185;50.872;5.306;2023-04-02T06:23:10;101297.75;;;5.26;100.00
25238;BME280;13185;50.872;5.306;2023-04-02T06:25:41;101304.66;;;5.30;100.00
25238;BME280;13185;50.872;5.306;2023-04-02T06:28:14;101299.31;;;5.32;100.00
25238;BME280;13185;50.872;5.306;2023-04-02T06:30:49;101310.72;;;5.35;100.00
25238;BME280;13185;50.872;5.306;2023-04-02T06:33:19;101317.94;;;5.32;100.00
25238;BME280;13185;50.872;5.306;2023-04-02T06:35:47;101312.56;;;5.33;100.00
25238;BME280;13185;50.872;5.306;2023-04-02T06:38:26;101335.63;;;5.33;100.00
25238;BME280;13185;50.872;5.306;2023-04-02T06:40:59;101344.69;;;5.27;100.00
25238;BME280;13185;50.872;5.306;2023-04-02T06:43:38;101345.72;;;5.23;100.00
25238;BME280;13185;50.872;5.306;2023-04-02T06:46:59;101344.00;;;5.20;100.00
25238;BME280;13185;50.872;5.306;2023-04-02T06:49:36;101352.84;;;5.22;100.00
25238;BME280;13185;50.872;5.306;2023-04-02T06:52:12;101366.75;;;5.29;100.00
25238;BME280;13185;50.872;5.306;2023-04-02T06:54:40;101361.50;;;5.28;100.00
25238;BME280;13185;50.872;5.306;2023-04-02T06:57:08;101368.50;;;5.30;100.00
25238;BME280;13185;50.872;5.306;2023-04-02T06:59:38;101374.75;;;5.29;100.00
25238;BME280;13185;50.872;5.306;2023-04-02T07:02:32;101379.25;;;5.27;100.00
25238;BME280;13185;50.872;5.306;2023-04-02T07:05:05;101373.94;;;5.27;100.00
25238;BME280;13185;50.872;5.306;2023-04-02T07:07:33;101385.38;;;5.29;100.00
25238;BME280;13185;50.872;5.306;2023-04-02T07:10:02;101392.41;;;5.32;100.00
25238;BME280;13185;50.872;5.306;2023-04-02T07:12:28;101394.94;;;5.35;100.00
25238;BME280;13185;50.872;5.306;2023-04-02T07:14:54;101399.59;;;5.28;100.00
25238;BME280;13185;50.872;5.306;2023-04-02T07:17:20;101410.34;;;5.25;100.00
25238;BME280;13185;50.872;5.306;2023-04-02T07:19:46;101416.72;;;5.21;100.00
25238;BME280;13185;50.872;5.306;2023-04-02T07:22:16;101426.63;;;5.16;100.00
25238;BME280;13185;50.872;5.306;2023-04-02T07:24:43;101433.63;;;5.18;100.00
25238;BME280;13185;50.872;5.306;2023-04-02T07:27:10;101427.34;;;5.21;100.00
25238;BME280;13185;50.872;5.306;2023-04-02T07:29:36;101436.13;;;5.23;100.00
25238;BME280;13185;50.872;5.306;2023-04-02T07:32:08;101423.53;;;5.28;100.00
25238;BME280;13185;50.872;5.306;2023-04-02T07:34:34;101440.47;;;5.26;100.00
25238;BME280;13185;50.872;5.306;2023-04-02T07:36:59;101445.78;;;5.26;100.00
25238;BME280;13185;50.872;5.306;2023-04-02T07:39:26;101447.69;;;5.22;100.00
25238;BME280;13185;50.872;5.306;2023-04-02T07:41:57;101453.00;;;5.22;100.00
25238;BME280;13185;50.872;5.306;2023-04-02T07:44:23;101453.16;;;5.17;100.00
25238;BME280;13185;50.872;5.306;2023-04-02T07:46:48;101461.28;;;5.13;100.00
25238;BME280;13185;50.872;5.306;2023-04-02T07:49:14;101473.78;;;5.09;100.00
25238;BME280;13185;50.872;5.306;2023-04-02T07:51:39;101472.94;;;5.09;100.00
25238;BME280;13185;50.872;5.306;2023-04-02T07:54:05;101475.44;;;5.13;100.00
25238;BME280;13185;50.872;5.306;2023-04-02T07:56:34;101478.81;;;5.18;100.00
25238;BME280;13185;50.872;5.306;2023-04-02T07:59:00;101473.50;;;5.18;100.00
25238;BME280;13185;50.872;5.306;2023-04-02T08:01:26;101484.19;;;5.17;100.00
25238;BME280;13185;50.872;5.306;2023-04-02T08:03:55;101491.34;;;5.15;100.00
25238;BME280;13185;50.872;5.306;2023-04-02T08:06:22;101495.75;;;5.16;100.00
25238;BME280;13185;50.872;5.306;2023-04-02T08:08:48;101499.22;;;5.18;100.00
25238;BME280;13185;50.872;5.306;2023-04-02T08:11:14;101500.09;;;5.18;100.00
25238;BME280;13185;50.872;5.306;2023-04-02T08:13:40;101514.41;;;5.14;100.00
25238;BME280;13185;50.872;5.306;2023-04-02T08:16:06;101523.09;;;5.21;100.00
25238;BME280;13185;50.872;5.306;2023-04-02T08:18:32;101535.47;;;5.22;100.00
25238;BME280;13185;50.872;5.306;2023-04-02T08:20:58;101540.13;;;5.14;100.00
25238;BME280;13185;50.872;5.306;2023-04-02T08:23:24;101549.97;;;5.12;100.00
25238;BME280;13185;50.872;5.306;2023-04-02T08:25:51;101564.19;;;5.09;100.00
25238;BME280;13185;50.872;5.306;2023-04-02T08:28:18;101555.34;;;5.09;100.00
25238;BME280;13185;50.872;5.306;2023-04-02T08:30:44;101561.41;;;5.14;100.00
25238;BME280;13185;50.872;5.306;2023-04-02T08:33:09;101558.59;;;5.18;100.00
25238;BME280;13185;50.872;5.306;2023-04-02T08:35:35;101563.00;;;5.19;100.00
25238;BME280;13185;50.872;5.306;2023-04-02T08:38:01;101567.38;;;5.20;100.00
25238;BME280;13185;50.872;5.306;2023-04-02T08:40:33;101575.19;;;5.27;100.00
25238;BME280;13185;50.872;5.306;2023-04-02T08:43:03;101578.00;;;5.22;100.00
25238;BME280;13185;50.872;5.306;2023-04-02T08:45:54;101590.59;;;5.15;100.00
25238;BME280;13185;50.872;5.306;2023-04-02T08:48:22;101588.75;;;5.17;100.00
25238;BME280;13185;50.872;5.306;2023-04-02T08:50:49;101594.19;;;5.14;100.00
25238;BME280;13185;50.872;5.306;2023-04-02T08:53:20;101598.81;;;5.08;100.00
25238;BME280;13185;50.872;5.306;2023-04-02T08:55:54;101599.88;;;5.02;100.00
25238;BME280;13185;50.872;5.306;2023-04-02T08:58:31;101610.53;;;5.02;100.00
25238;BME280;13185;50.872;5.306;2023-04-02T09:01:02;101612.25;;;5.03;100.00
25238;BME280;13185;50.872;5.306;2023-04-02T09:06:00;101628.38;;;4.97;100.00
25238;BME280;13185;50.872;5.306;2023-04-02T09:08:28;101633.56;;;5.02;100.00
25238;BME280;13185;50.872;5.306;2023-04-02T09:11:05;101630.88;;;5.03;100.00
25238;BME280;13185;50.872;5.306;2023-04-02T09:13:33;101640.53;;;5.06;100.00
25238;BME280;13185;50.872;5.306;2023-04-02T09:16:12;101644.75;;;5.13;100.00
25238;BME280;13185;50.872;5.306;2023-04-02T09:18:39;101644.66;;;5.16;100.00
25238;BME280;13185;50.872;5.306;2023-04-02T09:23:43;101661.06;;;5.30;100.00
25238;BME280;13185;50.872;5.306;2023-04-02T09:26:34;101656.66;;;5.29;100.00
25238;BME280;13185;50.872;5.306;2023-04-02T09:29:18;101674.34;;;5.30;100.00
25238;BME280;13185;50.872;5.306;2023-04-02T09:34:47;101677.78;;;5.35;100.00
25238;BME280;13185;50.872;5.306;2023-04-02T09:37:19;101684.78;;;5.38;100.00
25238;BME280;13185;50.872;5.306;2023-04-02T09:39:47;101692.72;;;5.39;100.00
25238;BME280;13185;50.872;5.306;2023-04-02T09:42:32;101681.34;;;5.34;100.00
25238;BME280;13185;50.872;5.306;2023-04-02T09:47:38;101693.84;;;5.31;100.00
25238;BME280;13185;50.872;5.306;2023-04-02T09:52:46;101699.16;;;5.32;100.00
25238;BME280;13185;50.872;5.306;2023-04-02T09:57:41;101707.94;;;5.34;100.00
25238;BME280;13185;50.872;5.306;2023-04-02T10:02:45;101713.06;;;5.42;100.00
25238;BME280;13185;50.872;5.306;2023-04-02T10:05:31;101721.91;;;5.42;100.00
25238;BME280;13185;50.872;5.306;2023-04-02T10:08:25;101721.91;;;5.42;100.00
25238;BME280;13185;50.872;5.306;2023-04-02T10:10:54;101721.66;;;5.50;100.00
25238;BME280;13185;50.872;5.306;2023-04-02T10:13:32;101740.22;;;5.51;100.00
25238;BME280;13185;50.872;5.306;2023-04-02T10:22:13;101753.94;;;5.38;100.00
25238;BME280;13185;50.872;5.306;2023-04-02T10:24:40;101761.72;;;5.45;100.00
25238;BME280;13185;50.872;5.306;2023-04-02T10:52:25;101806.78;;;5.50;98.00
25238;BME280;13185;50.872;5.306;2023-04-02T10:54:57;101811.06;;;5.56;98.39
25238;BME280;13185;50.872;5.306;2023-04-02T10:57:40;101814.28;;;5.67;99.04
25238;BME280;13185;50.872;5.306;2023-04-02T11:00:20;101807.34;;;5.63;97.93
25238;BME280;13185;50.872;5.306;2023-04-02T11:03:12;101817.72;;;5.70;97.44
25238;BME280;13185;50.872;5.306;2023-04-02T11:05:47;101827.38;;;5.74;96.65
25238;BME280;13185;50.872;5.306;2023-04-02T11:08:26;101823.81;;;5.75;96.20
25238;BME280;13185;50.872;5.306;2023-04-02T11:11:04;101833.59;;;5.75;96.03
25238;BME280;13185;50.872;5.306;2023-04-02T11:16:10;101841.09;;;5.92;96.85
25238;BME280;13185;50.872;5.306;2023-04-02T11:18:39;101838.38;;;5.93;95.63
25238;BME280;13185;50.872;5.306;2023-04-02T11:21:07;101836.63;;;5.92;95.00
25238;BME280;13185;50.872;5.306;2023-04-02T11:26:32;101841.84;;;5.97;94.84
25238;BME280;13185;50.872;5.306;2023-04-02T11:29:16;101851.78;;;5.90;93.54
25238;BME280;13185;50.872;5.306;2023-04-02T11:31:44;101857.28;;;5.84;93.06
25238;BME280;13185;50.872;5.306;2023-04-02T11:37:08;101870.00;;;5.73;92.40
25238;BME280;13185;50.872;5.306;2023-04-02T11:39:46;101870.13;;;5.68;92.06
25238;BME280;13185;50.872;5.306;2023-04-02T11:44:43;101874.19;;;5.82;92.68
25238;BME280;13185;50.872;5.306;2023-04-02T11:47:22;101877.38;;;5.96;93.41
25238;BME280;13185;50.872;5.306;2023-04-02T11:49:55;101875.47;;;5.99;92.63
25238;BME280;13185;50.872;5.306;2023-04-02T11:52:49;101881.50;;;6.06;92.87
25238;BME280;13185;50.872;5.306;2023-04-02T11:55:18;101884.78;;;6.14;93.65
25238;BME280;13185;50.872;5.306;2023-04-02T12:01:20;101890.88;;;6.19;92.52
25238;BME280;13185;50.872;5.306;2023-04-02T12:09:33;101910.94;;;6.31;93.26
25238;BME280;13185;50.872;5.306;2023-04-02T12:12:36;101908.38;;;6.28;91.47
25238;BME280;13185;50.872;5.306;2023-04-02T12:15:01;101926.16;;;6.27;91.17
25238;BME280;13185;50.872;5.306;2023-04-02T12:17:37;101921.03;;;6.20;90.09
25238;BME280;13185;50.872;5.306;2023-04-02T12:22:38;101919.25;;;6.20;90.70
25238;BME280;13185;50.872;5.306;2023-04-02T12:30:37;101928.00;;;6.24;90.50
25238;BME280;13185;50.872;5.306;2023-04-02T12:35:42;101931.31;;;6.32;91.38
25238;BME280;13185;50.872;5.306;2023-04-02T12:38:54;101942.13;;;6.27;90.98
25238;BME280;13185;50.872;5.306;2023-04-02T12:41:29;101935.72;;;6.33;91.46
25238;BME280;13185;50.872;5.306;2023-04-02T12:46:30;101950.63;;;6.40;89.64
25238;BME280;13185;50.872;5.306;2023-04-02T12:49:11;101948.13;;;6.34;89.84
25238;BME280;13185;50.872;5.306;2023-04-02T12:51:42;101954.38;;;6.33;89.64
25238;BME280;13185;50.872;5.306;2023-04-02T12:54:13;101963.25;;;6.33;90.04
25238;BME280;13185;50.872;5.306;2023-04-02T12:56:39;101960.69;;;6.30;89.33
25238;BME280;13185;50.872;5.306;2023-04-02T12:59:04;101963.50;;;6.26;89.16
25238;BME280;13185;50.872;5.306;2023-04-02T13:01:30;101963.28;;;6.32;90.39
25238;BME280;13185;50.872;5.306;2023-04-02T13:04:10;101970.25;;;6.38;90.40
25238;BME280;13185;50.872;5.306;2023-04-02T13:06:40;101977.06;;;6.48;90.33
25238;BME280;13185;50.872;5.306;2023-04-02T13:09:33;101974.22;;;6.52;89.60
25238;BME280;13185;50.872;5.306;2023-04-02T13:12:00;101971.78;;;6.46;87.63
25238;BME280;13185;50.872;5.306;2023-04-02T13:14:26;101966.47;;;6.45;88.01
25238;BME280;13185;50.872;5.306;2023-04-02T13:16:53;101977.97;;;6.47;88.57
25238;BME280;13185;50.872;5.306;2023-04-02T13:19:28;101972.59;;;6.48;87.55
25238;BME280;13185;50.872;5.306;2023-04-02T13:21:56;101976.13;;;6.49;87.27
25238;BME280;13185;50.872;5.306;2023-04-02T13:24:25;101975.22;;;6.50;88.17
25238;BME280;13185;50.872;5.306;2023-04-02T13:26:56;101972.22;;;6.60;88.68
25238;BME280;13185;50.872;5.306;2023-04-02T13:29:33;101977.09;;;6.74;89.26
25238;BME280;13185;50.872;5.306;2023-04-02T13:32:01;101980.00;;;6.68;86.64
25238;BME280;13185;50.872;5.306;2023-04-02T13:34:27;101979.34;;;6.60;86.59
25238;BME280;13185;50.872;5.306;2023-04-02T13:36:53;101982.13;;;6.55;87.34
25238;BME280;13185;50.872;5.306;2023-04-02T13:39:18;101989.03;;;6.62;87.83
25238;BME280;13185;50.872;5.306;2023-04-02T13:41:59;101996.47;;;6.51;86.35
25238;BME280;13185;50.872;5.306;2023-04-02T13:44:31;101995.56;;;6.52;86.94
25238;BME280;13185;50.872;5.306;2023-04-02T13:46:57;101998.13;;;6.55;87.63
25238;BME280;13185;50.872;5.306;2023-04-02T13:49:24;101992.63;;;6.61;88.19
25238;BME280;13185;50.872;5.306;2023-04-02T13:52:01;101995.97;;;6.68;87.58
25238;BME280;13185;50.872;5.306;2023-04-02T13:54:35;102005.78;;;6.66;87.28
25238;BME280;13185;50.872;5.306;2023-04-02T13:57:04;101998.44;;;6.74;87.06
25238;BME280;13185;50.872;5.306;2023-04-02T13:59:30;102001.81;;;6.81;87.06
25238;BME280;13185;50.872;5.306;2023-04-02T14:02:04;102003.22;;;6.92;87.91
25238;BME280;13185;50.872;5.306;2023-04-02T14:04:34;102016.38;;;6.97;87.47
25238;BME280;13185;50.872;5.306;2023-04-02T14:07:19;102019.22;;;6.92;85.11
25238;BME280;13185;50.872;5.306;2023-04-02T14:12:51;102016.94;;;6.80;86.28
25238;BME280;13185;50.872;5.306;2023-04-02T14:24:02;102032.09;;;7.06;86.42
25238;BME280;13185;50.872;5.306;2023-04-02T14:26:54;102036.38;;;7.12;85.93
25238;BME280;13185;50.872;5.306;2023-04-02T14:40:05;102056.94;;;7.36;85.83
25238;BME280;13185;50.872;5.306;2023-04-02T14:43:06;102059.91;;;7.27;84.60
25238;BME280;13185;50.872;5.306;2023-04-02T14:45:47;102057.38;;;7.22;84.78
25238;BME280;13185;50.872;5.306;2023-04-02T14:51:22;102070.97;;;7.15;84.94
25238;BME280;13185;50.872;5.306;2023-04-02T14:57:04;102074.84;;;7.33;85.33
25238;BME280;13185;50.872;5.306;2023-04-02T15:02:46;102063.66;;;7.21;84.75
25238;BME280;13185;50.872;5.306;2023-04-02T15:08:02;102079.41;;;7.29;83.87
25238;BME280;13185;50.872;5.306;2023-04-02T15:10:35;102082.16;;;7.26;84.13
25238;BME280;13185;50.872;5.306;2023-04-02T15:13:07;102075.53;;;7.11;83.02
25238;BME280;13185;50.872;5.306;2023-04-02T15:15:44;102083.47;;;7.13;83.38
25238;BME280;13185;50.872;5.306;2023-04-02T15:18:16;102081.59;;;7.16;83.86
25238;BME280;13185;50.872;5.306;2023-04-02T15:24:09;102086.47;;;7.32;84.77
25238;BME280;13185;50.872;5.306;2023-04-02T15:42:53;102103.06;;;7.40;82.93
25238;BME280;13185;50.872;5.306;2023-04-02T15:45:46;102111.09;;;7.40;82.20
25238;BME280;13185;50.872;5.306;2023-04-02T15:48:22;102113.09;;;7.33;81.69
25238;BME280;13185;50.872;5.306;2023-04-02T15:51:06;102116.97;;;7.23;81.50
25238;BME280;13185;50.872;5.306;2023-04-02T15:54:05;102121.56;;;7.18;81.89
25238;BME280;13185;50.872;5.306;2023-04-02T15:59:33;102133.25;;;7.14;81.83
25238;BME280;13185;50.872;5.306;2023-04-02T16:02:25;102128.69;;;7.17;82.49
25238;BME280;13185;50.872;5.306;2023-04-02T16:10:39;102141.16;;;7.17;81.94
25238;BME280;13185;50.872;5.306;2023-04-02T16:13:27;102137.66;;;7.15;81.64
25238;BME280;13185;50.872;5.306;2023-04-02T16:16:33;102139.56;;;7.11;82.36
25238;BME280;13185;50.872;5.306;2023-04-02T16:21:33;102148.59;;;7.06;82.12
25238;BME280;13185;50.872;5.306;2023-04-02T16:24:09;102155.63;;;7.08;82.33
25238;BME280;13185;50.872;5.306;2023-04-02T16:29:31;102161.81;;;7.10;82.31
25238;BME280;13185;50.872;5.306;2023-04-02T16:35:16;102173.53;;;7.05;81.32
25238;BME280;13185;50.872;5.306;2023-04-02T16:43:12;102191.78;;;6.89;81.23
25238;BME280;13185;50.872;5.306;2023-04-02T16:59:25;102209.22;;;6.70;80.24
25238;BME280;13185;50.872;5.306;2023-04-02T17:07:30;102218.88;;;6.74;80.19
25238;BME280;13185;50.872;5.306;2023-04-02T17:10:18;102215.28;;;6.75;80.94
25238;BME280;13185;50.872;5.306;2023-04-02T17:12:53;102230.41;;;6.74;80.87
25238;BME280;13185;50.872;5.306;2023-04-02T17:15:37;102230.53;;;6.70;80.83
25238;BME280;13185;50.872;5.306;2023-04-02T17:18:17;102236.06;;;6.62;79.92
25238;BME280;13185;50.872;5.306;2023-04-02T17:20:45;102249.69;;;6.51;79.54
25238;BME280;13185;50.872;5.306;2023-04-02T17:23:15;102241.91;;;6.42;79.09
25238;BME280;13185;50.872;5.306;2023-04-02T17:25:52;102250.91;;;6.38;79.87
25238;BME280;13185;50.872;5.306;2023-04-02T17:28:22;102254.53;;;6.34;79.57
25238;BME280;13185;50.872;5.306;2023-04-02T17:30:53;102256.47;;;6.29;79.74
25238;BME280;13185;50.872;5.306;2023-04-02T17:33:20;102258.25;;;6.28;80.36
25238;BME280;13185;50.872;5.306;2023-04-02T17:38:46;102269.88;;;6.24;80.78
25238;BME280;13185;50.872;5.306;2023-04-02T17:41:19;102279.75;;;6.21;80.94
25238;BME280;13185;50.872;5.306;2023-04-02T17:43:57;102273.53;;;6.20;80.92